createdAt,value
2018-09-13T00:02:26.491Z,18.86
2018-09-13T00:04:55.374Z,18.83
2018-09-13T00:07:24.232Z,18.64
2018-09-13T00:09:53.140Z,18.72
2018-09-13T00:12:22.053Z,18.60
2018-09-13T00:14:51.096Z,18.59
2018-09-13T00:17:19.992Z,18.53
2018-09-13T00:19:48.915Z,18.48
2018-09-13T00:22:17.775Z,18.46
2018-09-13T00:24:46.646Z,18.36
2018-09-13T00:27:15.520Z,18.47
2018-09-13T00:29:44.647Z,18.33
2018-09-13T00:32:13.513Z,18.21
2018-09-13T00:34:42.408Z,18.17
2018-09-13T00:37:11.350Z,18.27
2018-09-13T00:39:40.215Z,18.41
2018-09-13T00:42:09.084Z,18.38
2018-09-13T00:44:38.139Z,18.46
2018-09-13T00:47:11.221Z,18.34
2018-09-13T00:49:40.206Z,18.46
2018-09-13T00:52:09.143Z,18.53
2018-09-13T00:54:38.131Z,18.28
2018-09-13T00:57:07.128Z,18.27
2018-09-13T00:59:36.015Z,18.17
2018-09-13T01:02:05.061Z,18.16
2018-09-13T01:04:34.047Z,18.09
2018-09-13T01:07:03.117Z,17.97
2018-09-13T01:09:31.963Z,17.98
2018-09-13T01:12:00.819Z,17.87
2018-09-13T01:14:29.789Z,17.88
2018-09-13T01:17:00.145Z,18.07
2018-09-13T01:19:29.017Z,17.93
2018-09-13T01:21:57.878Z,17.83
2018-09-13T01:24:26.751Z,17.71
2018-09-13T01:26:55.704Z,17.68
2018-09-13T01:29:24.580Z,17.74
2018-09-13T01:31:53.470Z,17.70
2018-09-13T01:34:22.400Z,17.48
2018-09-13T01:36:51.293Z,17.31
2018-09-13T01:39:20.254Z,17.24
2018-09-13T01:41:49.156Z,17.18
2018-09-13T01:44:18.053Z,17.28
2018-09-13T01:46:46.947Z,17.43
2018-09-13T01:49:15.984Z,17.36
2018-09-13T01:51:44.890Z,17.17
2018-09-13T01:54:14.142Z,17.12
2018-09-13T01:56:43.035Z,17.08
2018-09-13T01:59:11.966Z,17.07
2018-09-13T02:01:40.973Z,17.06
2018-09-13T02:04:09.860Z,17.12
2018-09-13T02:06:38.956Z,17.14
2018-09-13T02:09:09.959Z,17.15
2018-09-13T02:11:38.811Z,17.22
2018-09-13T02:14:07.764Z,17.25
2018-09-13T02:16:36.684Z,17.24
2018-09-13T02:19:05.728Z,17.15
2018-09-13T02:21:34.643Z,17.01
2018-09-13T02:24:03.499Z,16.98
2018-09-13T02:26:32.356Z,16.97
2018-09-13T02:29:01.311Z,16.95
2018-09-13T02:31:30.328Z,16.89
2018-09-13T02:33:59.220Z,16.85
2018-09-13T02:36:28.117Z,16.81
2018-09-13T02:38:56.992Z,16.85
2018-09-13T02:41:25.839Z,16.86
2018-09-13T02:43:54.794Z,16.88
2018-09-13T02:46:23.801Z,16.85
2018-09-13T02:48:52.731Z,16.82
2018-09-13T02:51:21.603Z,16.90
2018-09-13T02:53:50.552Z,16.89
2018-09-13T02:56:19.431Z,16.88
2018-09-13T02:58:48.392Z,16.87
2018-09-13T03:01:17.272Z,16.76
2018-09-13T03:03:46.191Z,16.76
2018-09-13T03:06:15.138Z,16.83
2018-09-13T03:08:44.008Z,16.83
2018-09-13T03:11:12.886Z,16.79
2018-09-13T03:13:41.793Z,16.77
2018-09-13T03:16:10.835Z,16.74
2018-09-13T03:18:39.763Z,16.69
2018-09-13T03:21:08.668Z,16.71
2018-09-13T03:23:37.605Z,16.70
2018-09-13T03:26:06.500Z,16.66
2018-09-13T03:28:35.439Z,16.65
2018-09-13T03:31:04.378Z,16.63
2018-09-13T03:33:33.401Z,16.64
2018-09-13T03:36:02.356Z,16.63
2018-09-13T03:38:31.222Z,16.60
2018-09-13T03:41:00.107Z,16.53
2018-09-13T03:43:28.985Z,16.52
2018-09-13T03:45:57.851Z,16.52
2018-09-13T03:48:27.006Z,16.49
2018-09-13T03:50:55.896Z,16.53
2018-09-13T03:53:24.880Z,16.49
2018-09-13T03:55:53.896Z,16.48
2018-09-13T03:58:22.789Z,16.46
2018-09-13T04:00:51.643Z,16.46
2018-09-13T04:03:20.647Z,16.42
2018-09-13T04:05:49.833Z,16.47
2018-09-13T04:08:18.913Z,16.53
2018-09-13T04:10:47.837Z,16.51
2018-09-13T04:13:16.881Z,16.50
2018-09-13T04:15:45.952Z,16.51
2018-09-13T04:18:14.877Z,16.54
2018-09-13T04:20:43.802Z,16.54
2018-09-13T04:23:12.665Z,16.56
2018-09-13T04:25:41.568Z,16.59
2018-09-13T04:28:10.554Z,16.58
2018-09-13T04:30:39.455Z,16.63
2018-09-13T04:33:08.505Z,16.63
2018-09-13T04:35:37.447Z,16.62
2018-09-13T04:38:06.369Z,16.62
2018-09-13T04:40:35.242Z,16.61
2018-09-13T04:43:04.443Z,16.60
2018-09-13T04:45:33.417Z,16.59
2018-09-13T04:48:02.572Z,16.63
2018-09-13T04:50:31.615Z,16.72
2018-09-13T04:53:00.859Z,16.58
2018-09-13T04:55:30.046Z,16.55
2018-09-13T04:57:59.305Z,16.53
2018-09-13T05:00:28.317Z,16.45
2018-09-13T05:02:57.240Z,16.45
2018-09-13T05:05:26.520Z,16.47
2018-09-13T05:07:55.529Z,16.51
2018-09-13T05:10:24.728Z,16.49
2018-09-13T05:12:53.855Z,16.54
2018-09-13T05:15:24.576Z,16.62
2018-09-13T05:17:54.843Z,16.69
2018-09-13T05:20:23.794Z,16.76
2018-09-13T05:22:52.730Z,16.87
2018-09-13T05:25:21.712Z,17.02
2018-09-13T05:27:50.638Z,17.03
2018-09-13T05:30:19.684Z,17.14
2018-09-13T05:32:48.720Z,17.25
2018-09-13T05:35:17.586Z,17.38
2018-09-13T05:37:46.489Z,17.51
2018-09-13T05:40:15.386Z,17.61
2018-09-13T05:42:44.232Z,17.69
2018-09-13T05:45:13.183Z,17.86
2018-09-13T05:47:42.028Z,18.00
2018-09-13T05:50:11.385Z,17.99
2018-09-13T05:52:40.242Z,18.02
2018-09-13T05:55:09.152Z,18.01
2018-09-13T05:57:38.175Z,18.06
2018-09-13T06:00:07.383Z,17.96
2018-09-13T06:02:36.260Z,17.92
2018-09-13T06:05:05.191Z,17.74
2018-09-13T06:07:34.183Z,17.52
2018-09-13T06:10:03.134Z,17.59
2018-09-13T06:12:32.269Z,17.66
2018-09-13T06:15:01.122Z,17.73
2018-09-13T06:17:30.020Z,17.55
2018-09-13T06:19:59.145Z,17.25
2018-09-13T06:22:28.072Z,17.36
2018-09-13T06:24:56.923Z,17.40
2018-09-13T06:27:25.808Z,17.52
2018-09-13T06:29:54.743Z,17.68
2018-09-13T06:32:23.688Z,17.43
2018-09-13T06:34:52.560Z,17.20
2018-09-13T06:37:21.422Z,17.35
2018-09-13T06:39:50.280Z,17.28
2018-09-13T06:42:19.305Z,17.41
2018-09-13T06:44:48.139Z,17.45
2018-09-13T06:47:17.008Z,17.57
2018-09-13T06:49:45.907Z,17.70
2018-09-13T06:52:14.864Z,17.87
2018-09-13T06:54:43.745Z,18.00
2018-09-13T06:57:12.628Z,18.08
2018-09-13T06:59:41.571Z,18.18
2018-09-13T07:02:10.440Z,18.21
2018-09-13T07:04:39.319Z,18.25
2018-09-13T07:07:08.252Z,18.42
2018-09-13T07:09:37.228Z,18.55
2018-09-13T07:12:06.127Z,18.50
2018-09-13T07:14:35.125Z,18.48
2018-09-13T07:17:04.016Z,18.38
2018-09-13T07:19:32.916Z,18.51
2018-09-13T07:22:01.852Z,18.56
2018-09-13T07:24:31.088Z,18.66
2018-09-13T07:26:59.939Z,18.81
2018-09-13T07:29:28.797Z,18.94
2018-09-13T07:31:57.859Z,18.96
2018-09-13T07:34:26.703Z,19.08
2018-09-13T07:36:55.659Z,19.03
2018-09-13T07:39:24.540Z,18.88
2018-09-13T07:41:53.416Z,19.13
2018-09-13T07:44:22.291Z,19.20
2018-09-13T07:46:51.200Z,19.13
2018-09-13T07:49:20.196Z,19.18
2018-09-13T07:51:49.167Z,19.25
2018-09-13T07:54:18.032Z,19.46
2018-09-13T07:56:46.906Z,19.45
2018-09-13T07:59:15.813Z,19.78
2018-09-13T08:01:44.736Z,19.55
2018-09-13T08:04:13.611Z,19.74
2018-09-13T08:06:42.531Z,20.09
2018-09-13T08:09:12.944Z,20.08
2018-09-13T08:11:41.917Z,20.36
2018-09-13T08:14:10.776Z,20.77
2018-09-13T08:16:39.653Z,20.81
2018-09-13T08:19:08.565Z,20.57
2018-09-13T08:21:37.525Z,20.75
2018-09-13T08:24:07.315Z,21.03
2018-09-13T08:26:36.292Z,20.80
2018-09-13T08:29:05.207Z,20.92
2018-09-13T08:31:34.199Z,20.45
2018-09-13T08:34:03.308Z,20.43
2018-09-13T08:36:32.179Z,20.33
2018-09-13T08:39:01.087Z,20.33
2018-09-13T08:41:29.944Z,20.52
2018-09-13T08:43:58.815Z,20.12
2018-09-13T08:46:27.683Z,20.39
2018-09-13T08:48:56.576Z,20.21
2018-09-13T08:51:25.431Z,20.15
2018-09-13T08:53:54.319Z,20.09
2018-09-13T08:56:23.204Z,19.98
2018-09-13T08:58:52.113Z,20.08
2018-09-13T09:01:20.997Z,20.24
2018-09-13T09:03:49.901Z,20.44
2018-09-13T09:06:18.890Z,20.77
2018-09-13T09:08:47.836Z,20.59
2018-09-13T09:11:16.959Z,20.56
2018-09-13T09:13:45.920Z,20.88
2018-09-13T09:16:14.832Z,20.75
2018-09-13T09:18:43.909Z,20.87
2018-09-13T09:21:12.806Z,20.85
2018-09-13T09:23:41.650Z,21.22
2018-09-13T09:26:10.540Z,21.09
2018-09-13T09:28:39.575Z,21.35
2018-09-13T09:31:08.599Z,21.35
2018-09-13T09:33:37.484Z,22.52
2018-09-13T09:36:06.396Z,23.20
2018-09-13T09:38:35.289Z,23.34
2018-09-13T09:41:04.335Z,23.41
2018-09-13T09:43:33.260Z,23.46
2018-09-13T09:46:02.152Z,23.79
2018-09-13T09:48:31.056Z,24.36
2018-09-13T09:50:59.972Z,24.40
2018-09-13T09:53:29.078Z,25.01
2018-09-13T09:55:57.963Z,25.15
2018-09-13T09:58:26.949Z,24.53
2018-09-13T10:01:01.067Z,23.57
2018-09-13T10:03:30.000Z,23.68
2018-09-13T10:05:58.882Z,22.46
2018-09-13T10:08:27.932Z,21.88
2018-09-13T10:10:57.053Z,22.46
2018-09-13T10:13:25.920Z,22.61
2018-09-13T10:16:00.153Z,23.09
2018-09-13T10:18:34.279Z,23.32
2018-09-13T10:21:08.310Z,23.09
2018-09-13T10:23:42.315Z,22.44
2018-09-13T10:26:16.311Z,22.85
2018-09-13T10:28:50.225Z,22.79
2018-09-13T10:31:24.181Z,22.78
2018-09-13T10:33:58.276Z,22.72
2018-09-13T10:36:32.227Z,22.59
2018-09-13T10:39:06.289Z,22.63
2018-09-13T10:41:40.316Z,22.79
2018-09-13T10:44:14.280Z,23.34
2018-09-13T10:46:43.222Z,22.86
2018-09-13T10:49:17.289Z,23.08
2018-09-13T10:51:51.308Z,23.89
2018-09-13T10:54:22.217Z,24.28
2018-09-13T10:56:51.076Z,24.75
2018-09-13T10:59:20.145Z,24.88
2018-09-13T11:01:49.021Z,24.67
2018-09-13T11:04:17.926Z,24.69
2018-09-13T11:06:46.936Z,23.55
2018-09-13T11:09:15.815Z,24.15
2018-09-13T11:11:44.918Z,24.06
2018-09-13T11:14:18.787Z,24.46
2018-09-13T11:16:47.653Z,24.90
2018-09-13T11:19:16.531Z,24.58
2018-09-13T11:21:45.586Z,24.13
2018-09-13T11:24:14.663Z,24.31
2018-09-13T11:26:43.594Z,23.43
2018-09-13T11:29:12.472Z,23.63
2018-09-13T11:31:41.358Z,23.97
2018-09-13T11:34:10.296Z,23.96
2018-09-13T11:36:39.196Z,23.95
2018-09-13T11:39:10.675Z,23.56
2018-09-13T11:41:39.713Z,23.61
2018-09-13T11:44:08.780Z,23.75
2018-09-13T11:46:38.055Z,24.25
2018-09-13T11:49:07.076Z,23.91
2018-09-13T11:51:35.948Z,24.46
2018-09-13T11:54:04.909Z,24.43
2018-09-13T11:56:33.797Z,24.32
2018-09-13T11:59:02.648Z,24.64
2018-09-13T12:01:31.551Z,24.56
2018-09-13T12:04:00.530Z,24.29
2018-09-13T12:06:29.448Z,24.39
2018-09-13T12:08:58.411Z,24.41
2018-09-13T12:11:27.296Z,24.19
2018-09-13T12:13:56.191Z,24.36
2018-09-13T12:16:25.124Z,23.98
2018-09-13T12:18:54.014Z,23.38
2018-09-13T12:21:22.865Z,23.77
2018-09-13T12:23:51.737Z,23.91
2018-09-13T12:26:20.666Z,24.47
2018-09-13T12:28:49.708Z,24.99
2018-09-13T12:31:18.598Z,25.12
2018-09-13T12:33:47.641Z,25.29
2018-09-13T12:36:16.471Z,26.08
2018-09-13T12:38:45.376Z,26.01
2018-09-13T12:41:14.524Z,25.75
2018-09-13T12:43:43.420Z,25.67
2018-09-13T12:46:12.411Z,25.71
2018-09-13T12:48:41.298Z,25.92
2018-09-13T12:51:10.191Z,26.10
2018-09-13T12:53:39.111Z,26.21
2018-09-13T12:56:08.039Z,26.17
2018-09-13T12:58:36.984Z,26.14
2018-09-13T13:01:05.867Z,25.95
2018-09-13T13:03:34.764Z,25.82
2018-09-13T13:06:03.851Z,25.44
2018-09-13T13:08:32.775Z,25.36
2018-09-13T13:11:01.673Z,25.27
2018-09-13T13:13:30.757Z,25.16
2018-09-13T13:15:59.640Z,25.13
2018-09-13T13:18:28.527Z,25.11
2018-09-13T13:20:57.407Z,25.13
2018-09-13T13:23:26.263Z,25.07
2018-09-13T13:25:55.260Z,24.95
2018-09-13T13:28:24.201Z,24.85
2018-09-13T13:30:53.072Z,24.84
2018-09-13T13:33:22.031Z,24.72
2018-09-13T13:35:50.941Z,24.80
2018-09-13T13:38:19.832Z,24.81
2018-09-13T13:40:48.817Z,24.79
2018-09-13T13:43:17.672Z,24.73
2018-09-13T13:45:46.597Z,24.70
2018-09-13T13:48:15.591Z,24.71
2018-09-13T13:50:44.514Z,24.92
2018-09-13T13:53:13.600Z,25.03
2018-09-13T13:55:42.479Z,25.27
2018-09-13T13:58:11.365Z,25.37
2018-09-13T14:00:40.428Z,25.49
2018-09-13T14:03:09.490Z,25.64
2018-09-13T14:05:38.432Z,25.58
2018-09-13T14:08:07.352Z,25.87
2018-09-13T14:10:36.269Z,25.82
2018-09-13T14:13:05.181Z,25.76
2018-09-13T14:15:34.067Z,25.78
2018-09-13T14:18:03.107Z,25.97
2018-09-13T14:20:32.051Z,26.15
2018-09-13T14:23:00.911Z,26.53
2018-09-13T14:25:29.859Z,26.91
2018-09-13T14:27:58.837Z,26.76
2018-09-13T14:30:27.740Z,26.50
2018-09-13T14:32:56.741Z,26.30
2018-09-13T14:35:25.647Z,26.29
2018-09-13T14:37:54.504Z,26.13
2018-09-13T14:40:23.365Z,25.90
2018-09-13T14:42:52.251Z,25.92
2018-09-13T14:45:21.192Z,25.90
2018-09-13T14:47:50.267Z,26.04
2018-09-13T14:50:19.143Z,26.18
2018-09-13T14:52:48.124Z,25.97
2018-09-13T14:55:17.099Z,25.62
2018-09-13T14:57:45.963Z,25.55
2018-09-13T15:00:14.849Z,25.52
2018-09-13T15:02:44.083Z,25.24
2018-09-13T15:05:13.075Z,25.11
2018-09-13T15:07:41.974Z,25.00
2018-09-13T15:10:10.871Z,24.87
2018-09-13T15:12:40.205Z,24.84
2018-09-13T15:15:09.251Z,24.68
2018-09-13T15:17:38.128Z,24.79
2018-09-13T15:20:07.343Z,24.72
2018-09-13T15:22:36.238Z,24.54
2018-09-13T15:25:05.188Z,24.58
2018-09-13T15:27:34.283Z,24.69
2018-09-13T15:30:03.148Z,24.62
2018-09-13T15:32:32.127Z,24.48
2018-09-13T15:35:01.047Z,24.60
2018-09-13T15:37:29.929Z,24.52
2018-09-13T15:40:01.194Z,24.50
2018-09-13T15:42:30.076Z,24.44
2018-09-13T15:44:59.341Z,24.34
2018-09-13T15:47:28.228Z,24.22
2018-09-13T15:49:57.256Z,24.21
2018-09-13T15:52:26.599Z,24.12
2018-09-13T15:54:56.286Z,24.09
2018-09-13T15:57:25.384Z,24.02
2018-09-13T15:59:54.268Z,24.02
2018-09-13T16:02:23.732Z,24.11
2018-09-13T16:04:52.780Z,23.82
2018-09-13T16:07:21.712Z,23.83
2018-09-13T16:09:51.428Z,23.79
2018-09-13T16:12:20.366Z,23.73
2018-09-13T16:14:51.309Z,23.53
2018-09-13T16:17:20.555Z,23.39
2018-09-13T16:19:49.808Z,23.16
2018-09-13T16:22:19.211Z,23.03
2018-09-13T16:24:48.392Z,22.88
2018-09-13T16:27:18.652Z,22.73
2018-09-13T16:29:47.604Z,22.67
2018-09-13T16:32:30.939Z,22.39
2018-09-13T16:35:00.311Z,22.34
2018-09-13T16:37:34.409Z,22.20
2018-09-13T16:40:10.623Z,21.96
2018-09-13T16:42:53.216Z,21.91
2018-09-13T16:45:27.255Z,21.86
2018-09-13T16:48:00.631Z,21.75
2018-09-13T16:50:29.776Z,21.68
2018-09-13T16:52:58.832Z,21.49
2018-09-13T16:55:28.691Z,21.42
2018-09-13T16:57:58.048Z,21.34
2018-09-13T17:00:27.496Z,21.24
2018-09-13T17:02:56.701Z,21.12
2018-09-13T17:05:25.640Z,20.88
2018-09-13T17:07:55.904Z,20.79
2018-09-13T17:10:25.429Z,20.88
2018-09-13T17:12:55.920Z,20.52
2018-09-13T17:15:25.262Z,20.11
2018-09-13T17:17:54.278Z,19.92
2018-09-13T17:20:23.274Z,19.67
2018-09-13T17:22:52.851Z,19.38
2018-09-13T17:25:22.113Z,19.21
2018-09-13T17:27:53.138Z,19.04
2018-09-13T17:30:26.780Z,18.79
2018-09-13T17:33:11.215Z,18.61
2018-09-13T17:35:57.287Z,18.70
2018-09-13T17:38:26.924Z,18.72
2018-09-13T17:40:55.809Z,19.02
2018-09-13T17:43:24.708Z,19.03
2018-09-13T17:45:53.941Z,18.96
2018-09-13T17:48:22.844Z,18.89
2018-09-13T17:50:51.927Z,18.71
2018-09-13T17:53:20.899Z,18.57
2018-09-13T17:55:50.089Z,18.57
2018-09-13T17:58:19.234Z,18.58
2018-09-13T18:00:48.173Z,18.72
2018-09-13T18:03:17.487Z,18.67
2018-09-13T18:05:46.865Z,18.61
2018-09-13T18:08:16.112Z,18.69
2018-09-13T18:10:45.005Z,18.63
2018-09-13T18:13:14.035Z,18.30
2018-09-13T18:15:43.225Z,18.13
2018-09-13T18:18:12.151Z,17.82
2018-09-13T18:20:41.073Z,17.78
2018-09-13T18:23:09.937Z,17.65
2018-09-13T18:25:38.840Z,17.73
2018-09-13T18:28:07.788Z,17.84
2018-09-13T18:30:37.142Z,17.76
2018-09-13T18:33:06.109Z,17.82
2018-09-13T18:35:35.029Z,17.73
2018-09-13T18:38:03.923Z,17.69
2018-09-13T18:40:32.879Z,17.78
2018-09-13T18:43:01.832Z,17.84
2018-09-13T18:45:31.110Z,17.59
2018-09-13T18:48:00.240Z,17.82
2018-09-13T18:50:29.340Z,17.91
2018-09-13T18:52:58.570Z,17.86
2018-09-13T18:55:27.676Z,17.74
2018-09-13T18:57:56.762Z,17.87
2018-09-13T19:00:27.777Z,17.72
2018-09-13T19:02:56.777Z,17.58
2018-09-13T19:05:25.760Z,17.46
2018-09-13T19:07:55.199Z,17.36
2018-09-13T19:10:24.111Z,17.26
2018-09-13T19:12:53.016Z,17.17
2018-09-13T19:15:21.928Z,17.09
2018-09-13T19:17:50.908Z,17.13
2018-09-13T19:20:19.839Z,17.24
2018-09-13T19:22:48.721Z,17.25
2018-09-13T19:25:17.738Z,17.18
2018-09-13T19:27:46.828Z,17.06
2018-09-13T19:30:15.952Z,16.99
2018-09-13T19:32:45.048Z,16.98
2018-09-13T19:35:14.130Z,17.05
2018-09-13T19:37:43.521Z,17.06
2018-09-13T19:40:13.111Z,17.00
2018-09-13T19:42:42.319Z,16.82
2018-09-13T19:45:11.440Z,16.73
2018-09-13T19:47:40.893Z,16.90
2018-09-13T19:50:10.187Z,16.82
2018-09-13T19:52:39.236Z,16.81
2018-09-13T19:55:08.650Z,16.83
2018-09-13T19:57:37.684Z,16.82
2018-09-13T20:00:07.390Z,16.70
2018-09-13T20:02:36.309Z,16.67
2018-09-13T20:05:05.572Z,16.80
2018-09-13T20:07:34.454Z,16.88
2018-09-13T20:10:04.401Z,16.93
2018-09-13T20:12:33.374Z,16.94
2018-09-13T20:15:02.953Z,17.01
2018-09-13T20:17:32.663Z,17.09
2018-09-13T20:20:02.760Z,17.02
2018-09-13T20:22:31.752Z,17.11
2018-09-13T20:25:01.221Z,17.02
2018-09-13T20:27:33.785Z,16.78
2018-09-13T20:30:02.889Z,16.53
2018-09-13T20:32:38.365Z,16.45
2018-09-13T20:35:07.313Z,16.50
2018-09-13T20:37:36.455Z,16.44
2018-09-13T20:40:05.904Z,16.44
2018-09-13T20:42:35.803Z,16.51
2018-09-13T20:45:08.912Z,16.58
2018-09-13T20:47:38.789Z,16.67
2018-09-13T20:50:08.448Z,16.77
2018-09-13T20:52:41.547Z,16.67
2018-09-13T20:55:10.885Z,16.59
2018-09-13T20:57:40.872Z,16.40
2018-09-13T21:00:10.357Z,16.44
2018-09-13T21:02:39.800Z,16.48
2018-09-13T21:05:09.444Z,16.36
2018-09-13T21:07:40.310Z,16.39
2018-09-13T21:10:10.224Z,16.36
2018-09-13T21:12:40.065Z,16.32
2018-09-13T21:15:09.529Z,16.34
2018-09-13T21:17:38.511Z,16.27
2018-09-13T21:20:08.056Z,16.29
2018-09-13T21:22:37.031Z,16.25
2018-09-13T21:25:07.532Z,16.17
2018-09-13T21:27:36.810Z,16.30
2018-09-13T21:30:05.976Z,16.25
2018-09-13T21:32:34.987Z,16.26
2018-09-13T21:35:04.247Z,16.15
2018-09-13T21:37:33.292Z,16.23
2018-09-13T21:40:02.337Z,16.11
2018-09-13T21:42:31.242Z,16.10
2018-09-13T21:45:00.678Z,16.13
2018-09-13T21:47:29.569Z,16.12
2018-09-13T21:49:58.525Z,16.14
2018-09-13T21:52:27.472Z,16.15
2018-09-13T21:54:56.558Z,16.09
2018-09-13T21:57:25.652Z,16.21
2018-09-13T21:59:54.965Z,16.22
2018-09-13T22:02:24.060Z,16.24
2018-09-13T22:04:53.256Z,16.34
2018-09-13T22:07:22.141Z,16.23
2018-09-13T22:09:51.052Z,16.34
2018-09-13T22:12:20.626Z,16.34
2018-09-13T22:14:50.132Z,16.29
2018-09-13T22:17:19.136Z,16.37
2018-09-13T22:19:48.460Z,16.42
2018-09-13T22:22:17.726Z,16.32
2018-09-13T22:24:47.121Z,16.34
2018-09-13T22:27:16.676Z,16.40
2018-09-13T22:29:45.900Z,16.47
2018-09-13T22:32:15.069Z,16.46
2018-09-13T22:34:44.214Z,16.59
2018-09-13T22:37:13.429Z,16.63
2018-09-13T22:39:42.870Z,16.41
2018-09-13T22:42:37.919Z,16.35
2018-09-13T22:45:07.491Z,16.24
2018-09-13T22:47:36.723Z,16.18
2018-09-13T22:50:06.274Z,16.12
2018-09-13T22:52:35.432Z,16.08
2018-09-13T22:55:04.787Z,16.14
2018-09-13T22:57:34.385Z,16.14
2018-09-13T23:00:04.636Z,16.26
2018-09-13T23:02:41.009Z,16.27
2018-09-13T23:05:10.385Z,16.32
2018-09-13T23:07:39.924Z,16.36
2018-09-13T23:10:08.819Z,16.34
2018-09-13T23:12:37.764Z,16.39
2018-09-13T23:15:06.991Z,16.51
2018-09-13T23:17:35.974Z,16.55
2018-09-13T23:20:05.223Z,16.30
2018-09-13T23:22:34.961Z,16.34
2018-09-13T23:25:04.500Z,16.54
2018-09-13T23:27:33.787Z,16.54
2018-09-13T23:30:02.839Z,16.48
2018-09-13T23:32:31.719Z,16.56
2018-09-13T23:35:01.021Z,16.71
2018-09-13T23:37:30.140Z,16.47
2018-09-13T23:39:59.337Z,16.45
2018-09-13T23:42:28.564Z,16.42
2018-09-13T23:44:57.448Z,16.34
2018-09-13T23:47:26.629Z,16.26
2018-09-13T23:49:55.935Z,16.22
2018-09-13T23:52:25.200Z,16.20
2018-09-13T23:54:54.107Z,16.11
2018-09-13T23:57:22.976Z,15.99
2018-09-13T23:59:52.393Z,15.95
